Accueil
METAR-TAF:

METAR-TAF

Aéroports :

Ingolstadt, Allemagne

latitude: 48-43N, longitude: 011-32E, altitude: 367 m

Observation

Le bulletin a été fait il y a 30 minutes, à 22:20 UTC
Vent 7 kt de sud
Température 11°C
Humidité 76%
Pression 1001 hPa
Visibilité 10 km ou plus

METAR: ETSI 262220Z AUTO 19007KT 9999 // ////// 11/07 Q1001 ///

Heure: 00:50 (22:50 UTC)

Prévision

Le bulletin a été fait il y a 9 heures et 39 minutes, à 13:11 UTC
Prévision valable du 26 à 14 UTC au 26 à 23 UTC
Vent 6 kt de ouest/sud-ouest
Visibilité 10 km ou plus
Quelques nuages à une hauteur de 3000 ft
Nuages épars à une hauteur de 8000 ft
Evoluant progressivement
du 26 à 20 UTC au 26 à 22 UTC
Vent 3 kt de sud/sud-ouest
Visibilité: 7000 m
Nuages fragmentés à une hauteur de 5000 ft
pluie faible

TAF: ETSI 261311Z 2614/2623 24006KT 9999 NSW FEW030 SCT080 BECMG 2620/2622 21003KT 7000 -RA BKN050

Observations et prévisions météorologiques de plus de 4000 aéroports (messages METAR et TAF).

Les stations disponibles sont représentées par des disques jaunes et rouges sur la carte.

Passer la souris dessus pour voir le nom de la station.

Cliquer dessus pour voir les observations et prévisions météorologiques.

Pour changer de carte: cliquez sur les boutons verts avec une croix noire pour zoomer, sur le bouton vert avec un tiret pour effectuer un zoom arrière, ou sur les flèches vertes pour les cartes adjacentes.


METAR-TAF: